sensor_id;sensor_type;location;lat;lon;timestamp;pressure;altitude;pressure_sealevel;temperature
20736;BMP180;10528;52.124;5.196;2024-02-28T00:01:03;101880.00;;;10.40
20736;BMP180;10528;52.124;5.196;2024-02-28T00:03:30;101863.00;;;10.40
20736;BMP180;10528;52.124;5.196;2024-02-28T00:05:58;101875.00;;;10.30
20736;BMP180;10528;52.124;5.196;2024-02-28T00:08:25;101872.00;;;10.30
20736;BMP180;10528;52.124;5.196;2024-02-28T00:10:52;101872.00;;;10.30
20736;BMP180;10528;52.124;5.196;2024-02-28T00:13:21;101869.00;;;10.20
20736;BMP180;10528;52.124;5.196;2024-02-28T00:15:50;101863.00;;;10.20
20736;BMP180;10528;52.124;5.196;2024-02-28T00:18:17;101875.00;;;10.10
20736;BMP180;10528;52.124;5.196;2024-02-28T00:20:45;101870.00;;;10.10
20736;BMP180;10528;52.124;5.196;2024-02-28T00:23:12;101874.00;;;10.00
20736;BMP180;10528;52.124;5.196;2024-02-28T00:25:39;101871.00;;;10.00
20736;BMP180;10528;52.124;5.196;2024-02-28T00:28:06;101880.00;;;10.00
20736;BMP180;10528;52.124;5.196;2024-02-28T00:30:33;101860.00;;;9.90
20736;BMP180;10528;52.124;5.196;2024-02-28T00:33:00;101880.00;;;9.90
20736;BMP180;10528;52.124;5.196;2024-02-28T00:35:31;101882.00;;;9.80
20736;BMP180;10528;52.124;5.196;2024-02-28T00:38:00;101873.00;;;9.80
20736;BMP180;10528;52.124;5.196;2024-02-28T00:40:28;101885.00;;;9.70
20736;BMP180;10528;52.124;5.196;2024-02-28T00:42:58;101887.00;;;9.70
20736;BMP180;10528;52.124;5.196;2024-02-28T00:45:25;101876.00;;;9.70
20736;BMP180;10528;52.124;5.196;2024-02-28T00:47:52;101872.00;;;9.60
20736;BMP180;10528;52.124;5.196;2024-02-28T00:50:21;101873.00;;;9.60
20736;BMP180;10528;52.124;5.196;2024-02-28T00:52:48;101863.00;;;9.50
20736;BMP180;10528;52.124;5.196;2024-02-28T00:55:15;101863.00;;;9.50
20736;BMP180;10528;52.124;5.196;2024-02-28T00:57:42;101869.00;;;9.50
20736;BMP180;10528;52.124;5.196;2024-02-28T01:00:10;101859.00;;;9.50
20736;BMP180;10528;52.124;5.196;2024-02-28T01:02:37;101871.00;;;9.40
20736;BMP180;10528;52.124;5.196;2024-02-28T01:05:05;101874.00;;;9.40
20736;BMP180;10528;52.124;5.196;2024-02-28T01:07:31;101853.00;;;9.40
20736;BMP180;10528;52.124;5.196;2024-02-28T01:09:59;101870.00;;;9.30
20736;BMP180;10528;52.124;5.196;2024-02-28T01:12:26;101864.00;;;9.30
20736;BMP180;10528;52.124;5.196;2024-02-28T01:14:54;101878.00;;;9.30
20736;BMP180;10528;52.124;5.196;2024-02-28T01:17:21;101869.00;;;9.20
20736;BMP180;10528;52.124;5.196;2024-02-28T01:19:48;101861.00;;;9.20
20736;BMP180;10528;52.124;5.196;2024-02-28T01:22:15;101870.00;;;9.20
20736;BMP180;10528;52.124;5.196;2024-02-28T01:24:42;101865.00;;;9.10
20736;BMP180;10528;52.124;5.196;2024-02-28T01:27:12;101869.00;;;9.10
20736;BMP180;10528;52.124;5.196;2024-02-28T01:29:39;101862.00;;;9.10
20736;BMP180;10528;52.124;5.196;2024-02-28T01:32:06;101870.00;;;9.10
20736;BMP180;10528;52.124;5.196;2024-02-28T01:34:33;101861.00;;;9.00
20736;BMP180;10528;52.124;5.196;2024-02-28T01:37:00;101848.00;;;9.00
20736;BMP180;10528;52.124;5.196;2024-02-28T01:39:27;101847.00;;;9.00
20736;BMP180;10528;52.124;5.196;2024-02-28T01:41:55;101846.00;;;8.90
20736;BMP180;10528;52.124;5.196;2024-02-28T01:44:22;101842.00;;;8.90
20736;BMP180;10528;52.124;5.196;2024-02-28T01:46:49;101846.00;;;8.90
20736;BMP180;10528;52.124;5.196;2024-02-28T01:49:17;101851.00;;;8.90
20736;BMP180;10528;52.124;5.196;2024-02-28T01:51:46;101855.00;;;8.90
20736;BMP180;10528;52.124;5.196;2024-02-28T01:54:15;101855.00;;;8.80
20736;BMP180;10528;52.124;5.196;2024-02-28T01:56:43;101836.00;;;8.80
20736;BMP180;10528;52.124;5.196;2024-02-28T01:59:10;101847.00;;;8.80
20736;BMP180;10528;52.124;5.196;2024-02-28T02:01:38;101851.00;;;8.80
20736;BMP180;10528;52.124;5.196;2024-02-28T02:04:05;101836.00;;;8.80
20736;BMP180;10528;52.124;5.196;2024-02-28T02:06:33;101847.00;;;8.80
20736;BMP180;10528;52.124;5.196;2024-02-28T02:09:04;101844.00;;;8.70
20736;BMP180;10528;52.124;5.196;2024-02-28T02:11:31;101856.00;;;8.70
20736;BMP180;10528;52.124;5.196;2024-02-28T02:13:58;101858.00;;;8.70
20736;BMP180;10528;52.124;5.196;2024-02-28T02:16:25;101859.00;;;8.70
20736;BMP180;10528;52.124;5.196;2024-02-28T02:18:55;101862.00;;;8.70
20736;BMP180;10528;52.124;5.196;2024-02-28T02:21:58;101854.00;;;8.70
20736;BMP180;10528;52.124;5.196;2024-02-28T02:24:24;101858.00;;;8.70
20736;BMP180;10528;52.124;5.196;2024-02-28T02:26:58;101856.00;;;8.70
20736;BMP180;10528;52.124;5.196;2024-02-28T02:29:25;101848.00;;;8.70
20736;BMP180;10528;52.124;5.196;2024-02-28T02:31:54;101857.00;;;8.70
20736;BMP180;10528;52.124;5.196;2024-02-28T02:34:21;101863.00;;;8.70
20736;BMP180;10528;52.124;5.196;2024-02-28T02:36:48;101855.00;;;8.80
20736;BMP180;10528;52.124;5.196;2024-02-28T02:39:15;101855.00;;;8.80
20736;BMP180;10528;52.124;5.196;2024-02-28T02:41:42;101857.00;;;8.80
20736;BMP180;10528;52.124;5.196;2024-02-28T02:44:09;101854.00;;;8.80
20736;BMP180;10528;52.124;5.196;2024-02-28T02:46:36;101851.00;;;8.80
20736;BMP180;10528;52.124;5.196;2024-02-28T02:49:14;101833.00;;;8.80
20736;BMP180;10528;52.124;5.196;2024-02-28T02:51:41;101830.00;;;8.80
20736;BMP180;10528;52.124;5.196;2024-02-28T02:54:10;101844.00;;;8.90
20736;BMP180;10528;52.124;5.196;2024-02-28T02:56:41;101851.00;;;8.90
20736;BMP180;10528;52.124;5.196;2024-02-28T02:59:09;101844.00;;;8.90
20736;BMP180;10528;52.124;5.196;2024-02-28T03:01:36;101845.00;;;8.90
20736;BMP180;10528;52.124;5.196;2024-02-28T03:04:03;101833.00;;;8.90
20736;BMP180;10528;52.124;5.196;2024-02-28T03:06:30;101848.00;;;8.90
20736;BMP180;10528;52.124;5.196;2024-02-28T03:08:59;101845.00;;;9.00
20736;BMP180;10528;52.124;5.196;2024-02-28T03:11:26;101838.00;;;9.00
20736;BMP180;10528;52.124;5.196;2024-02-28T03:13:52;101841.00;;;9.00
20736;BMP180;10528;52.124;5.196;2024-02-28T03:16:19;101843.00;;;9.00
20736;BMP180;10528;52.124;5.196;2024-02-28T03:18:46;101840.00;;;9.00
20736;BMP180;10528;52.124;5.196;2024-02-28T03:21:13;101830.00;;;9.10
20736;BMP180;10528;52.124;5.196;2024-02-28T03:23:40;101842.00;;;9.10
20736;BMP180;10528;52.124;5.196;2024-02-28T03:26:07;101834.00;;;9.10
20736;BMP180;10528;52.124;5.196;2024-02-28T03:28:34;101836.00;;;9.20
20736;BMP180;10528;52.124;5.196;2024-02-28T03:31:01;101836.00;;;9.20
20736;BMP180;10528;52.124;5.196;2024-02-28T03:33:28;101849.00;;;9.20
20736;BMP180;10528;52.124;5.196;2024-02-28T03:35:58;101846.00;;;9.30
20736;BMP180;10528;52.124;5.196;2024-02-28T03:38:25;101849.00;;;9.30
20736;BMP180;10528;52.124;5.196;2024-02-28T03:40:52;101835.00;;;9.30
20736;BMP180;10528;52.124;5.196;2024-02-28T03:43:19;101841.00;;;9.40
20736;BMP180;10528;52.124;5.196;2024-02-28T03:45:46;101840.00;;;9.40
20736;BMP180;10528;52.124;5.196;2024-02-28T03:48:13;101843.00;;;9.40
20736;BMP180;10528;52.124;5.196;2024-02-28T03:50:40;101842.00;;;9.50
20736;BMP180;10528;52.124;5.196;2024-02-28T03:53:07;101846.00;;;9.50
20736;BMP180;10528;52.124;5.196;2024-02-28T03:55:34;101843.00;;;9.60
20736;BMP180;10528;52.124;5.196;2024-02-28T03:58:02;101827.00;;;9.60
20736;BMP180;10528;52.124;5.196;2024-02-28T04:00:29;101840.00;;;9.60
20736;BMP180;10528;52.124;5.196;2024-02-28T04:02:56;101843.00;;;9.70
20736;BMP180;10528;52.124;5.196;2024-02-28T04:05:23;101844.00;;;9.70
20736;BMP180;10528;52.124;5.196;2024-02-28T04:07:50;101844.00;;;9.70
20736;BMP180;10528;52.124;5.196;2024-02-28T04:10:17;101844.00;;;9.80
20736;BMP180;10528;52.124;5.196;2024-02-28T04:12:44;101839.00;;;9.80
20736;BMP180;10528;52.124;5.196;2024-02-28T04:15:11;101849.00;;;9.80
20736;BMP180;10528;52.124;5.196;2024-02-28T04:17:42;101838.00;;;9.90
20736;BMP180;10528;52.124;5.196;2024-02-28T04:20:10;101853.00;;;9.90
20736;BMP180;10528;52.124;5.196;2024-02-28T04:22:38;101836.00;;;9.90
20736;BMP180;10528;52.124;5.196;2024-02-28T04:25:07;101850.00;;;9.90
20736;BMP180;10528;52.124;5.196;2024-02-28T04:27:38;101858.00;;;9.90
20736;BMP180;10528;52.124;5.196;2024-02-28T04:30:06;101857.00;;;9.90
20736;BMP180;10528;52.124;5.196;2024-02-28T04:32:33;101837.00;;;10.00
20736;BMP180;10528;52.124;5.196;2024-02-28T04:35:02;101838.00;;;10.00
20736;BMP180;10528;52.124;5.196;2024-02-28T04:37:30;101853.00;;;10.00
20736;BMP180;10528;52.124;5.196;2024-02-28T04:39:57;101856.00;;;10.00
20736;BMP180;10528;52.124;5.196;2024-02-28T04:42:24;101857.00;;;10.00
20736;BMP180;10528;52.124;5.196;2024-02-28T04:44:50;101843.00;;;10.00
20736;BMP180;10528;52.124;5.196;2024-02-28T04:47:17;101865.00;;;10.10
20736;BMP180;10528;52.124;5.196;2024-02-28T04:49:52;101872.00;;;10.10
20736;BMP180;10528;52.124;5.196;2024-02-28T04:52:19;101880.00;;;10.10
20736;BMP180;10528;52.124;5.196;2024-02-28T04:54:50;101874.00;;;10.10
20736;BMP180;10528;52.124;5.196;2024-02-28T04:57:17;101885.00;;;10.10
20736;BMP180;10528;52.124;5.196;2024-02-28T04:59:45;101884.00;;;10.20
20736;BMP180;10528;52.124;5.196;2024-02-28T05:02:12;101876.00;;;10.20
20736;BMP180;10528;52.124;5.196;2024-02-28T05:04:39;101882.00;;;10.20
20736;BMP180;10528;52.124;5.196;2024-02-28T05:07:06;101891.00;;;10.20
20736;BMP180;10528;52.124;5.196;2024-02-28T05:09:34;101885.00;;;10.30
20736;BMP180;10528;52.124;5.196;2024-02-28T05:12:02;101871.00;;;10.30
20736;BMP180;10528;52.124;5.196;2024-02-28T05:14:29;101881.00;;;10.30
20736;BMP180;10528;52.124;5.196;2024-02-28T05:16:56;101870.00;;;10.30
20736;BMP180;10528;52.124;5.196;2024-02-28T05:19:23;101870.00;;;10.30
20736;BMP180;10528;52.124;5.196;2024-02-28T05:21:50;101888.00;;;10.30
20736;BMP180;10528;52.124;5.196;2024-02-28T05:24:17;101873.00;;;10.30
20736;BMP180;10528;52.124;5.196;2024-02-28T05:26:44;101885.00;;;10.40
20736;BMP180;10528;52.124;5.196;2024-02-28T05:29:12;101882.00;;;10.40
20736;BMP180;10528;52.124;5.196;2024-02-28T05:31:39;101877.00;;;10.40
20736;BMP180;10528;52.124;5.196;2024-02-28T05:34:05;101871.00;;;10.40
20736;BMP180;10528;52.124;5.196;2024-02-28T05:36:32;101879.00;;;10.40
20736;BMP180;10528;52.124;5.196;2024-02-28T05:39:01;101874.00;;;10.40
20736;BMP180;10528;52.124;5.196;2024-02-28T05:41:28;101874.00;;;10.50
20736;BMP180;10528;52.124;5.196;2024-02-28T05:43:55;101880.00;;;10.50
20736;BMP180;10528;52.124;5.196;2024-02-28T05:46:22;101870.00;;;10.50
20736;BMP180;10528;52.124;5.196;2024-02-28T05:48:50;101876.00;;;10.50
20736;BMP180;10528;52.124;5.196;2024-02-28T05:51:17;101870.00;;;10.50
20736;BMP180;10528;52.124;5.196;2024-02-28T05:53:44;101876.00;;;10.50
20736;BMP180;10528;52.124;5.196;2024-02-28T05:56:11;101878.00;;;10.50
20736;BMP180;10528;52.124;5.196;2024-02-28T05:58:44;101881.00;;;10.50
20736;BMP180;10528;52.124;5.196;2024-02-28T06:01:12;101876.00;;;10.50
20736;BMP180;10528;52.124;5.196;2024-02-28T06:03:39;101887.00;;;10.60
20736;BMP180;10528;52.124;5.196;2024-02-28T06:06:07;101886.00;;;10.60
20736;BMP180;10528;52.124;5.196;2024-02-28T06:08:38;101883.00;;;10.60
20736;BMP180;10528;52.124;5.196;2024-02-28T06:11:05;101893.00;;;10.60
20736;BMP180;10528;52.124;5.196;2024-02-28T06:13:32;101886.00;;;10.60
20736;BMP180;10528;52.124;5.196;2024-02-28T06:15:59;101893.00;;;10.70
20736;BMP180;10528;52.124;5.196;2024-02-28T06:18:26;101889.00;;;10.70
20736;BMP180;10528;52.124;5.196;2024-02-28T06:20:55;101889.00;;;10.70
20736;BMP180;10528;52.124;5.196;2024-02-28T06:23:23;101886.00;;;10.70
20736;BMP180;10528;52.124;5.196;2024-02-28T06:25:56;101893.00;;;10.70
20736;BMP180;10528;52.124;5.196;2024-02-28T06:28:23;101897.00;;;10.80
20736;BMP180;10528;52.124;5.196;2024-02-28T06:30:51;101895.00;;;10.80
20736;BMP180;10528;52.124;5.196;2024-02-28T06:33:19;101889.00;;;10.80
20736;BMP180;10528;52.124;5.196;2024-02-28T06:35:46;101887.00;;;10.80
20736;BMP180;10528;52.124;5.196;2024-02-28T06:38:13;101902.00;;;10.80
20736;BMP180;10528;52.124;5.196;2024-02-28T06:40:40;101898.00;;;10.80
20736;BMP180;10528;52.124;5.196;2024-02-28T06:43:08;101915.00;;;10.90
20736;BMP180;10528;52.124;5.196;2024-02-28T06:45:35;101923.00;;;10.90
20736;BMP180;10528;52.124;5.196;2024-02-28T06:48:05;101909.00;;;10.90
20736;BMP180;10528;52.124;5.196;2024-02-28T06:50:32;101917.00;;;10.90
20736;BMP180;10528;52.124;5.196;2024-02-28T06:52:59;101924.00;;;10.90
20736;BMP180;10528;52.124;5.196;2024-02-28T06:55:26;101937.00;;;10.90
20736;BMP180;10528;52.124;5.196;2024-02-28T06:57:53;101943.00;;;10.90
20736;BMP180;10528;52.124;5.196;2024-02-28T07:00:20;101937.00;;;11.00
20736;BMP180;10528;52.124;5.196;2024-02-28T07:02:47;101939.00;;;11.00
20736;BMP180;10528;52.124;5.196;2024-02-28T07:05:14;101938.00;;;11.00
20736;BMP180;10528;52.124;5.196;2024-02-28T07:07:41;101935.00;;;11.00
20736;BMP180;10528;52.124;5.196;2024-02-28T07:10:08;101939.00;;;11.00
20736;BMP180;10528;52.124;5.196;2024-02-28T07:12:35;101949.00;;;11.10
20736;BMP180;10528;52.124;5.196;2024-02-28T07:15:02;101945.00;;;11.10
20736;BMP180;10528;52.124;5.196;2024-02-28T07:17:29;101938.00;;;11.10
20736;BMP180;10528;52.124;5.196;2024-02-28T07:19:56;101937.00;;;11.10
20736;BMP180;10528;52.124;5.196;2024-02-28T07:22:24;101944.00;;;11.20
20736;BMP180;10528;52.124;5.196;2024-02-28T07:24:51;101934.00;;;11.20
20736;BMP180;10528;52.124;5.196;2024-02-28T07:27:17;101943.00;;;11.20
20736;BMP180;10528;52.124;5.196;2024-02-28T07:29:44;101955.00;;;11.20
20736;BMP180;10528;52.124;5.196;2024-02-28T07:32:11;101943.00;;;11.20
20736;BMP180;10528;52.124;5.196;2024-02-28T07:34:39;101957.00;;;11.30
20736;BMP180;10528;52.124;5.196;2024-02-28T07:37:06;101957.00;;;11.30
20736;BMP180;10528;52.124;5.196;2024-02-28T07:39:33;101971.00;;;11.30
20736;BMP180;10528;52.124;5.196;2024-02-28T07:42:00;101975.00;;;11.40
20736;BMP180;10528;52.124;5.196;2024-02-28T07:44:27;101984.00;;;11.40
20736;BMP180;10528;52.124;5.196;2024-02-28T07:47:00;101984.00;;;11.40
20736;BMP180;10528;52.124;5.196;2024-02-28T07:49:27;101978.00;;;11.40
20736;BMP180;10528;52.124;5.196;2024-02-28T07:51:54;101982.00;;;11.50
20736;BMP180;10528;52.124;5.196;2024-02-28T07:54:22;101987.00;;;11.50
20736;BMP180;10528;52.124;5.196;2024-02-28T07:56:49;101983.00;;;11.50
20736;BMP180;10528;52.124;5.196;2024-02-28T07:59:18;101987.00;;;11.50
20736;BMP180;10528;52.124;5.196;2024-02-28T08:01:45;101985.00;;;11.60
20736;BMP180;10528;52.124;5.196;2024-02-28T08:04:12;101989.00;;;11.60
20736;BMP180;10528;52.124;5.196;2024-02-28T08:06:40;101992.00;;;11.60
20736;BMP180;10528;52.124;5.196;2024-02-28T08:09:08;101994.00;;;11.60
20736;BMP180;10528;52.124;5.196;2024-02-28T08:11:39;101979.00;;;11.60
20736;BMP180;10528;52.124;5.196;2024-02-28T08:14:06;101993.00;;;11.70
20736;BMP180;10528;52.124;5.196;2024-02-28T08:16:33;102002.00;;;11.70
20736;BMP180;10528;52.124;5.196;2024-02-28T08:19:00;102002.00;;;11.70
20736;BMP180;10528;52.124;5.196;2024-02-28T08:21:27;102005.00;;;11.70
20736;BMP180;10528;52.124;5.196;2024-02-28T08:23:55;102006.00;;;11.70
20736;BMP180;10528;52.124;5.196;2024-02-28T08:26:24;101997.00;;;11.80
20736;BMP180;10528;52.124;5.196;2024-02-28T08:28:51;102002.00;;;11.80
20736;BMP180;10528;52.124;5.196;2024-02-28T08:31:18;102009.00;;;11.80
20736;BMP180;10528;52.124;5.196;2024-02-28T08:33:45;102013.00;;;11.80
20736;BMP180;10528;52.124;5.196;2024-02-28T08:36:12;102022.00;;;11.90
20736;BMP180;10528;52.124;5.196;2024-02-28T08:38:39;102020.00;;;11.90
20736;BMP180;10528;52.124;5.196;2024-02-28T08:41:06;102028.00;;;11.90
20736;BMP180;10528;52.124;5.196;2024-02-28T08:43:40;102015.00;;;11.90
20736;BMP180;10528;52.124;5.196;2024-02-28T08:46:08;102020.00;;;11.90
20736;BMP180;10528;52.124;5.196;2024-02-28T08:48:35;102022.00;;;12.00
20736;BMP180;10528;52.124;5.196;2024-02-28T08:51:04;102011.00;;;12.00
20736;BMP180;10528;52.124;5.196;2024-02-28T08:53:31;102013.00;;;12.00
20736;BMP180;10528;52.124;5.196;2024-02-28T08:55:58;102011.00;;;12.00
20736;BMP180;10528;52.124;5.196;2024-02-28T08:58:25;102025.00;;;12.10
20736;BMP180;10528;52.124;5.196;2024-02-28T09:00:52;102021.00;;;12.10
20736;BMP180;10528;52.124;5.196;2024-02-28T09:03:19;102018.00;;;12.20
20736;BMP180;10528;52.124;5.196;2024-02-28T09:05:48;102020.00;;;12.20
20736;BMP180;10528;52.124;5.196;2024-02-28T09:08:15;102012.00;;;12.30
20736;BMP180;10528;52.124;5.196;2024-02-28T09:10:42;102010.00;;;12.40
20736;BMP180;10528;52.124;5.196;2024-02-28T09:13:09;102005.00;;;12.50
20736;BMP180;10528;52.124;5.196;2024-02-28T09:15:38;102006.00;;;12.50
20736;BMP180;10528;52.124;5.196;2024-02-28T09:18:05;102011.00;;;12.60
20736;BMP180;10528;52.124;5.196;2024-02-28T09:20:32;102008.00;;;12.70
20736;BMP180;10528;52.124;5.196;2024-02-28T09:22:59;102005.00;;;12.80
20736;BMP180;10528;52.124;5.196;2024-02-28T09:25:26;102009.00;;;12.90
20736;BMP180;10528;52.124;5.196;2024-02-28T09:27:55;102006.00;;;12.90
20736;BMP180;10528;52.124;5.196;2024-02-28T09:30:22;102018.00;;;13.00
20736;BMP180;10528;52.124;5.196;2024-02-28T09:32:51;102016.00;;;13.00
20736;BMP180;10528;52.124;5.196;2024-02-28T09:35:19;102013.00;;;13.10
20736;BMP180;10528;52.124;5.196;2024-02-28T09:37:46;102021.00;;;13.10
20736;BMP180;10528;52.124;5.196;2024-02-28T09:40:13;102010.00;;;13.10
20736;BMP180;10528;52.124;5.196;2024-02-28T09:42:40;102012.00;;;13.10
20736;BMP180;10528;52.124;5.196;2024-02-28T09:45:11;102002.00;;;13.20
20736;BMP180;10528;52.124;5.196;2024-02-28T09:47:39;102031.00;;;13.20
20736;BMP180;10528;52.124;5.196;2024-02-28T09:50:07;102026.00;;;13.30
20736;BMP180;10528;52.124;5.196;2024-02-28T09:52:34;102029.00;;;13.30
20736;BMP180;10528;52.124;5.196;2024-02-28T09:55:02;102033.00;;;13.40
20736;BMP180;10528;52.124;5.196;2024-02-28T09:57:31;102037.00;;;13.40
20736;BMP180;10528;52.124;5.196;2024-02-28T10:00:00;102033.00;;;13.50
20736;BMP180;10528;52.124;5.196;2024-02-28T10:02:32;102046.00;;;13.60
20736;BMP180;10528;52.124;5.196;2024-02-28T10:05:01;102048.00;;;13.60
20736;BMP180;10528;52.124;5.196;2024-02-28T10:07:30;102049.00;;;13.70
20736;BMP180;10528;52.124;5.196;2024-02-28T10:09:58;102038.00;;;13.80
20736;BMP180;10528;52.124;5.196;2024-02-28T10:12:25;102040.00;;;13.80
20736;BMP180;10528;52.124;5.196;2024-02-28T10:14:52;102024.00;;;13.90
20736;BMP180;10528;52.124;5.196;2024-02-28T10:17:19;102031.00;;;14.00
20736;BMP180;10528;52.124;5.196;2024-02-28T10:19:46;102019.00;;;14.00
20736;BMP180;10528;52.124;5.196;2024-02-28T10:22:14;102028.00;;;14.10
20736;BMP180;10528;52.124;5.196;2024-02-28T10:24:40;102026.00;;;14.20
20736;BMP180;10528;52.124;5.196;2024-02-28T10:27:07;102024.00;;;14.20
20736;BMP180;10528;52.124;5.196;2024-02-28T10:29:34;102016.00;;;14.30
20736;BMP180;10528;52.124;5.196;2024-02-28T10:32:01;102018.00;;;14.30
20736;BMP180;10528;52.124;5.196;2024-02-28T10:34:30;102018.00;;;14.40
20736;BMP180;10528;52.124;5.196;2024-02-28T10:36:59;102027.00;;;14.50
20736;BMP180;10528;52.124;5.196;2024-02-28T10:39:28;102020.00;;;14.50
20736;BMP180;10528;52.124;5.196;2024-02-28T10:41:57;102013.00;;;14.50
20736;BMP180;10528;52.124;5.196;2024-02-28T10:44:27;102021.00;;;14.50
20736;BMP180;10528;52.124;5.196;2024-02-28T10:46:55;102012.00;;;14.50
20736;BMP180;10528;52.124;5.196;2024-02-28T10:49:22;102012.00;;;14.60
20736;BMP180;10528;52.124;5.196;2024-02-28T10:51:49;102026.00;;;14.60
20736;BMP180;10528;52.124;5.196;2024-02-28T10:54:21;102020.00;;;14.60
20736;BMP180;10528;52.124;5.196;2024-02-28T10:56:52;102010.00;;;14.70
20736;BMP180;10528;52.124;5.196;2024-02-28T10:59:23;102010.00;;;14.70
20736;BMP180;10528;52.124;5.196;2024-02-28T11:01:50;102014.00;;;14.70
20736;BMP180;10528;52.124;5.196;2024-02-28T11:04:18;102016.00;;;14.70
20736;BMP180;10528;52.124;5.196;2024-02-28T11:06:54;102022.00;;;14.70
20736;BMP180;10528;52.124;5.196;2024-02-28T11:09:28;102008.00;;;14.70
20736;BMP180;10528;52.124;5.196;2024-02-28T11:11:57;102011.00;;;14.70
20736;BMP180;10528;52.124;5.196;2024-02-28T11:14:24;102016.00;;;14.80
20736;BMP180;10528;52.124;5.196;2024-02-28T11:17:05;102011.00;;;14.80
20736;BMP180;10528;52.124;5.196;2024-02-28T11:19:33;102023.00;;;14.80
20736;BMP180;10528;52.124;5.196;2024-02-28T11:22:05;102009.00;;;14.80
20736;BMP180;10528;52.124;5.196;2024-02-28T11:24:35;102010.00;;;14.90
20736;BMP180;10528;52.124;5.196;2024-02-28T11:27:06;102001.00;;;14.90
20736;BMP180;10528;52.124;5.196;2024-02-28T11:29:34;102006.00;;;14.90
20736;BMP180;10528;52.124;5.196;2024-02-28T11:32:00;101999.00;;;14.90
20736;BMP180;10528;52.124;5.196;2024-02-28T11:34:28;102008.00;;;15.00
20736;BMP180;10528;52.124;5.196;2024-02-28T11:36:55;102013.00;;;15.10
20736;BMP180;10528;52.124;5.196;2024-02-28T11:39:23;102005.00;;;15.10
20736;BMP180;10528;52.124;5.196;2024-02-28T11:41:52;102003.00;;;15.10
20736;BMP180;10528;52.124;5.196;2024-02-28T11:44:20;101999.00;;;15.10
20736;BMP180;10528;52.124;5.196;2024-02-28T11:46:48;101995.00;;;15.10
20736;BMP180;10528;52.124;5.196;2024-02-28T11:49:16;101984.00;;;15.20
20736;BMP180;10528;52.124;5.196;2024-02-28T11:51:44;101999.00;;;15.20
20736;BMP180;10528;52.124;5.196;2024-02-28T11:54:11;101994.00;;;15.20
20736;BMP180;10528;52.124;5.196;2024-02-28T11:56:39;101988.00;;;15.30
20736;BMP180;10528;52.124;5.196;2024-02-28T11:59:13;101993.00;;;15.30
20736;BMP180;10528;52.124;5.196;2024-02-28T12:01:42;101984.00;;;15.30
20736;BMP180;10528;52.124;5.196;2024-02-28T12:04:11;102000.00;;;15.40
20736;BMP180;10528;52.124;5.196;2024-02-28T12:06:39;101997.00;;;15.40
20736;BMP180;10528;52.124;5.196;2024-02-28T12:09:12;101994.00;;;15.40
20736;BMP180;10528;52.124;5.196;2024-02-28T12:11:50;101997.00;;;15.50
20736;BMP180;10528;52.124;5.196;2024-02-28T12:14:17;101991.00;;;15.50
20736;BMP180;10528;52.124;5.196;2024-02-28T12:16:44;101992.00;;;15.50
20736;BMP180;10528;52.124;5.196;2024-02-28T12:19:13;101987.00;;;15.50
20736;BMP180;10528;52.124;5.196;2024-02-28T12:21:42;101991.00;;;15.50
20736;BMP180;10528;52.124;5.196;2024-02-28T12:24:10;101988.00;;;15.50
20736;BMP180;10528;52.124;5.196;2024-02-28T12:26:38;101992.00;;;15.60
20736;BMP180;10528;52.124;5.196;2024-02-28T12:29:06;101982.00;;;15.60
20736;BMP180;10528;52.124;5.196;2024-02-28T12:31:34;101983.00;;;15.60
20736;BMP180;10528;52.124;5.196;2024-02-28T12:34:00;101980.00;;;15.70
20736;BMP180;10528;52.124;5.196;2024-02-28T12:36:28;101982.00;;;15.70
20736;BMP180;10528;52.124;5.196;2024-02-28T12:38:55;101978.00;;;15.70
20736;BMP180;10528;52.124;5.196;2024-02-28T12:41:22;101976.00;;;15.70
20736;BMP180;10528;52.124;5.196;2024-02-28T12:43:49;101978.00;;;15.70
20736;BMP180;10528;52.124;5.196;2024-02-28T12:46:16;101981.00;;;15.70
20736;BMP180;10528;52.124;5.196;2024-02-28T12:48:43;101977.00;;;15.70
20736;BMP180;10528;52.124;5.196;2024-02-28T12:51:39;101962.00;;;15.70
20736;BMP180;10528;52.124;5.196;2024-02-28T12:54:10;101964.00;;;15.70
20736;BMP180;10528;52.124;5.196;2024-02-28T12:56:39;101956.00;;;15.80
20736;BMP180;10528;52.124;5.196;2024-02-28T12:59:06;101954.00;;;15.80
20736;BMP180;10528;52.124;5.196;2024-02-28T13:01:36;101958.00;;;15.90
20736;BMP180;10528;52.124;5.196;2024-02-28T13:04:04;101960.00;;;15.90
20736;BMP180;10528;52.124;5.196;2024-02-28T13:06:31;101963.00;;;15.90
20736;BMP180;10528;52.124;5.196;2024-02-28T13:08:58;101959.00;;;16.00
20736;BMP180;10528;52.124;5.196;2024-02-28T13:11:25;101962.00;;;16.00
20736;BMP180;10528;52.124;5.196;2024-02-28T13:13:53;101963.00;;;16.10
20736;BMP180;10528;52.124;5.196;2024-02-28T13:16:20;101951.00;;;16.10
20736;BMP180;10528;52.124;5.196;2024-02-28T13:18:50;101946.00;;;16.10
20736;BMP180;10528;52.124;5.196;2024-02-28T13:21:17;101946.00;;;16.10
20736;BMP180;10528;52.124;5.196;2024-02-28T13:23:44;101944.00;;;16.10
20736;BMP180;10528;52.124;5.196;2024-02-28T13:26:11;101944.00;;;16.10
20736;BMP180;10528;52.124;5.196;2024-02-28T13:28:46;101940.00;;;16.10
20736;BMP180;10528;52.124;5.196;2024-02-28T13:31:16;101943.00;;;16.10
20736;BMP180;10528;52.124;5.196;2024-02-28T13:33:43;101945.00;;;16.10
20736;BMP180;10528;52.124;5.196;2024-02-28T13:36:10;101945.00;;;16.00
20736;BMP180;10528;52.124;5.196;2024-02-28T13:38:37;101941.00;;;16.00
20736;BMP180;10528;52.124;5.196;2024-02-28T13:41:04;101926.00;;;16.00
20736;BMP180;10528;52.124;5.196;2024-02-28T13:43:31;101924.00;;;16.00
20736;BMP180;10528;52.124;5.196;2024-02-28T13:45:58;101912.00;;;16.00
20736;BMP180;10528;52.124;5.196;2024-02-28T13:48:28;101924.00;;;16.00
20736;BMP180;10528;52.124;5.196;2024-02-28T13:50:56;101911.00;;;16.00
20736;BMP180;10528;52.124;5.196;2024-02-28T13:53:23;101907.00;;;15.90
20736;BMP180;10528;52.124;5.196;2024-02-28T13:55:51;101892.00;;;15.90
20736;BMP180;10528;52.124;5.196;2024-02-28T13:58:18;101888.00;;;16.00
20736;BMP180;10528;52.124;5.196;2024-02-28T14:00:47;101889.00;;;16.00
20736;BMP180;10528;52.124;5.196;2024-02-28T14:03:15;101880.00;;;16.00